createdAt,value
2022-10-21T00:00:59.271Z,100593.28
2022-10-21T00:01:46.330Z,100603.84
2022-10-21T00:02:40.712Z,100600.41
2022-10-21T00:03:36.317Z,100604.81
2022-10-21T00:04:30.246Z,100603.84
2022-10-21T00:05:24.264Z,100593.09
2022-10-21T00:06:19.254Z,100609.97
2022-10-21T00:07:06.273Z,100607.50
2022-10-21T00:07:41.425Z,100603.00
2022-10-21T00:08:29.317Z,100606.25
2022-10-21T00:09:03.417Z,100602.59
2022-10-21T00:09:50.269Z,100591.94
2022-10-21T00:10:24.373Z,100584.06
2022-10-21T00:11:14.280Z,100605.72
2022-10-21T00:11:48.317Z,100604.69
2022-10-21T00:12:29.272Z,100595.66
2022-10-21T00:13:09.350Z,100595.72
2022-10-21T00:13:50.252Z,100594.88
2022-10-21T00:14:30.326Z,100589.72
2022-10-21T00:15:13.254Z,100587.13
2022-10-21T00:16:18.388Z,100583.38
2022-10-21T00:16:58.269Z,100594.56
2022-10-21T00:17:47.346Z,100603.28
2022-10-21T00:18:42.241Z,100592.63
2022-10-21T00:19:36.258Z,100595.31
2022-10-21T00:20:31.189Z,100597.25
2022-10-21T00:21:33.299Z,100602.44
2022-10-21T00:22:27.353Z,100600.50
2022-10-21T00:23:07.376Z,100589.19
2022-10-21T00:23:47.372Z,100578.97
2022-10-21T00:24:27.268Z,100594.38
2022-10-21T00:25:07.330Z,100589.94
2022-10-21T00:25:47.248Z,100588.88
2022-10-21T00:26:27.338Z,100585.22
2022-10-21T00:27:09.230Z,100597.63
2022-10-21T00:27:49.321Z,100586.88
2022-10-21T00:28:29.321Z,100574.47
2022-10-21T00:29:09.386Z,100571.22
2022-10-21T00:29:49.228Z,100569.50
2022-10-21T00:30:29.338Z,100575.34
2022-10-21T00:31:13.300Z,100571.66
2022-10-21T00:31:53.524Z,100574.16
2022-10-21T00:32:33.240Z,100576.84
2022-10-21T00:33:13.303Z,100557.69
2022-10-21T00:33:54.275Z,100556.38
2022-10-21T00:34:34.402Z,100574.28
2022-10-21T00:35:15.269Z,100568.03
2022-10-21T00:36:02.456Z,100568.66
2022-10-21T00:36:43.268Z,100576.72
2022-10-21T00:37:23.304Z,100572.09
2022-10-21T00:38:03.232Z,100560.78
2022-10-21T00:39:00.263Z,100567.28
2022-10-21T00:39:54.207Z,100559.63
2022-10-21T00:40:48.241Z,100566.53
2022-10-21T00:41:42.274Z,100551.88
2022-10-21T00:42:45.681Z,100534.25
2022-10-21T00:43:42.230Z,100556.75
2022-10-21T00:44:23.313Z,100569.97
2022-10-21T00:45:12.290Z,100563.84
2022-10-21T00:45:54.240Z,100556.19
2022-10-21T00:46:45.330Z,100564.13
2022-10-21T00:47:28.252Z,100549.09
2022-10-21T00:48:21.314Z,100556.38
2022-10-21T00:49:05.236Z,100533.59
2022-10-21T00:50:09.233Z,100544.13
2022-10-21T00:51:13.315Z,100552.53
2022-10-21T00:52:03.208Z,100537.00
2022-10-21T00:52:40.588Z,100548.75
2022-10-21T00:53:29.274Z,100543.91
2022-10-21T00:54:03.358Z,100538.75
2022-10-21T00:54:51.229Z,100539.50
2022-10-21T00:55:32.326Z,100518.56
2022-10-21T00:56:34.229Z,100536.59
2022-10-21T00:57:28.208Z,100534.25
2022-10-21T00:58:22.204Z,100525.22
2022-10-21T00:59:18.235Z,100526.50
2022-10-21T01:00:16.214Z,100519.19
2022-10-21T01:00:58.350Z,100508.09
2022-10-21T01:01:38.336Z,100515.75
2022-10-21T01:02:18.240Z,100474.22
2022-10-21T01:02:58.300Z,100510.38
2022-10-21T01:03:39.229Z,100503.69
2022-10-21T01:04:19.307Z,100504.63
2022-10-21T01:05:03.197Z,100485.19
2022-10-21T01:05:45.393Z,100462.91
2022-10-21T01:06:31.267Z,100499.19
2022-10-21T01:07:11.273Z,100489.50
2022-10-21T01:07:54.244Z,100489.59
2022-10-21T01:08:35.400Z,100502.44
2022-10-21T01:09:15.337Z,100494.88
2022-10-21T01:09:55.253Z,100497.66
2022-10-21T01:10:36.196Z,100505.41
2022-10-21T01:11:22.314Z,100500.13
2022-10-21T01:12:03.243Z,100502.72
2022-10-21T01:13:22.332Z,100495.69
2022-10-21T01:14:31.221Z,100493.38
2022-10-21T01:15:47.295Z,100492.41
2022-10-21T01:16:50.188Z,100482.41
2022-10-21T01:17:54.250Z,100487.78
2022-10-21T01:18:52.264Z,100495.09
2022-10-21T01:19:59.187Z,100492.91
2022-10-21T01:20:54.315Z,100494.44
2022-10-21T01:22:11.215Z,100498.81
2022-10-21T01:23:29.330Z,100496.81
2022-10-21T01:25:13.180Z,100499.38
2022-10-21T01:26:49.230Z,100491.63
2022-10-21T01:28:00.234Z,100479.38
2022-10-21T01:29:17.231Z,100470.56
2022-10-21T01:30:30.256Z,100479.16
2022-10-21T01:31:57.180Z,100475.72
2022-10-21T01:34:10.184Z,100483.25
2022-10-21T01:35:02.241Z,100471.75
2022-10-21T01:35:46.241Z,100479.81
2022-10-21T01:36:36.960Z,100464.31
2022-10-21T01:37:43.323Z,100490.31
2022-10-21T01:38:45.258Z,100505.69
2022-10-21T01:39:27.619Z,100500.41
2022-10-21T01:40:20.341Z,100490.28
2022-10-21T01:41:07.257Z,100480.41
2022-10-21T01:41:52.662Z,100495.91
2022-10-21T01:42:41.258Z,100511.63
2022-10-21T01:43:30.258Z,100503.88
2022-10-21T01:44:23.403Z,100494.59
2022-10-21T01:45:56.232Z,100500.22
2022-10-21T01:46:35.264Z,100484.63
2022-10-21T01:47:20.544Z,100486.22
2022-10-21T01:48:04.181Z,100500.50
2022-10-21T01:48:44.265Z,100495.44
2022-10-21T01:49:39.330Z,100496.31
2022-10-21T01:50:35.188Z,100492.69
2022-10-21T01:51:20.228Z,100480.41
2022-10-21T01:51:55.380Z,100484.50
2022-10-21T01:52:43.279Z,100482.69
2022-10-21T01:53:17.978Z,100480.00
2022-10-21T01:54:23.185Z,100474.44
2022-10-21T01:55:04.712Z,100488.50
2022-10-21T01:55:54.157Z,100477.88
2022-10-21T01:56:35.182Z,100474.22
2022-10-21T01:57:19.320Z,100466.56
2022-10-21T01:58:10.143Z,100467.13
2022-10-21T01:58:52.213Z,100462.16
2022-10-21T01:59:35.147Z,100469.25
2022-10-21T02:00:16.305Z,100461.72
2022-10-21T02:00:58.277Z,100478.06
2022-10-21T02:01:46.184Z,100471.81
2022-10-21T02:02:20.913Z,100460.88
2022-10-21T02:03:10.141Z,100454.41
2022-10-21T02:03:47.226Z,100482.50
2022-10-21T02:04:35.148Z,100473.03
2022-10-21T02:05:21.444Z,100447.25
2022-10-21T02:06:08.177Z,100469.66
2022-10-21T02:06:41.872Z,100452.41
2022-10-21T02:07:23.159Z,100457.41
2022-10-21T02:07:57.233Z,100469.94
2022-10-21T02:08:31.182Z,100453.28
2022-10-21T02:09:11.243Z,100453.50
2022-10-21T02:09:45.279Z,100452.63
2022-10-21T02:10:19.889Z,100457.66
2022-10-21T02:11:04.160Z,100449.94
2022-10-21T02:11:40.269Z,100428.09
2022-10-21T02:12:15.932Z,100442.84
2022-10-21T02:12:58.172Z,100446.84
2022-10-21T02:13:37.218Z,100447.81
2022-10-21T02:14:17.520Z,100458.56
2022-10-21T02:14:59.150Z,100458.75
2022-10-21T02:15:34.211Z,100459.72
2022-10-21T02:16:10.383Z,100443.91
2022-10-21T02:16:51.163Z,100456.94
2022-10-21T02:17:27.245Z,100453.28
2022-10-21T02:18:17.163Z,100451.38
2022-10-21T02:18:57.342Z,100440.47
2022-10-21T02:19:38.170Z,100447.03
2022-10-21T02:20:20.207Z,100445.31
2022-10-21T02:21:17.124Z,100447.25
2022-10-21T02:22:00.264Z,100445.44
2022-10-21T02:22:42.113Z,100431.75
2022-10-21T02:23:31.216Z,100416.25
2022-10-21T02:24:43.127Z,100438.84
2022-10-21T02:25:39.134Z,100440.78
2022-10-21T02:26:12.874Z,100439.25
2022-10-21T02:27:00.167Z,100432.38
2022-10-21T02:27:33.866Z,100426.53
2022-10-21T02:28:22.189Z,100432.59
2022-10-21T02:29:03.173Z,100429.34
2022-10-21T02:29:46.178Z,100437.28
2022-10-21T02:30:26.141Z,100442.34
2022-10-21T02:31:43.226Z,100410.41
2022-10-21T02:33:12.105Z,100449.13
2022-10-21T02:34:59.180Z,100444.84
2022-10-21T02:36:15.862Z,100429.75
2022-10-21T02:37:13.124Z,100449.13
2022-10-21T02:38:33.232Z,100444.44
2022-10-21T02:39:35.138Z,100419.50
2022-10-21T02:40:47.142Z,100433.19
2022-10-21T02:41:30.226Z,100437.69
2022-10-21T02:42:15.098Z,100425.22
2022-10-21T02:43:02.149Z,100412.41
2022-10-21T02:43:58.143Z,100430.50
2022-10-21T02:44:38.359Z,100425.13
2022-10-21T02:45:18.129Z,100441.69
2022-10-21T02:46:09.147Z,100436.81
2022-10-21T02:46:44.731Z,100429.41
2022-10-21T02:47:33.106Z,100419.56
2022-10-21T02:48:07.043Z,100435.25
2022-10-21T02:49:00.105Z,100431.72
2022-10-21T02:49:33.863Z,100428.56
2022-10-21T02:50:22.111Z,100439.84
2022-10-21T02:50:55.844Z,100442.09
2022-10-21T02:51:36.136Z,100448.13
2022-10-21T02:52:10.173Z,100441.91
2022-10-21T02:52:43.789Z,100432.88
2022-10-21T02:53:24.109Z,100436.53
2022-10-21T02:53:58.217Z,100437.69
2022-10-21T02:54:32.828Z,100430.16
2022-10-21T02:55:14.093Z,100438.22
2022-10-21T02:55:48.217Z,100443.66
2022-10-21T02:56:21.835Z,100450.78
2022-10-21T02:57:02.129Z,100453.25
2022-10-21T02:57:36.485Z,100453.34
2022-10-21T02:58:10.861Z,100445.28
2022-10-21T02:58:51.108Z,100446.34
2022-10-21T02:59:25.384Z,100435.41
2022-10-21T02:59:58.792Z,100439.81
2022-10-21T03:00:39.126Z,100438.84
2022-10-21T03:01:13.208Z,100431.88
2022-10-21T03:01:46.784Z,100437.88
2022-10-21T03:02:27.115Z,100436.72
2022-10-21T03:03:01.257Z,100432.31
2022-10-21T03:03:34.765Z,100427.13
2022-10-21T03:04:16.081Z,100409.09
2022-10-21T03:04:50.172Z,100426.28
2022-10-21T03:05:23.912Z,100424.47
2022-10-21T03:06:05.237Z,100430.59
2022-10-21T03:06:39.157Z,100430.78
2022-10-21T03:07:12.855Z,100432.84
2022-10-21T03:07:53.125Z,100429.19
2022-10-21T03:08:27.299Z,100425.44
2022-10-21T03:09:01.885Z,100433.28
2022-10-21T03:09:42.085Z,100430.50
2022-10-21T03:10:16.153Z,100428.88
2022-10-21T03:10:53.162Z,100431.16
2022-10-21T03:11:34.108Z,100434.78
2022-10-21T03:12:08.211Z,100438.25
2022-10-21T03:12:41.874Z,100438.25
2022-10-21T03:13:23.124Z,100429.22
2022-10-21T03:13:57.145Z,100410.97
2022-10-21T03:14:30.781Z,100417.72
2022-10-21T03:15:12.068Z,100429.88
2022-10-21T03:15:46.236Z,100427.19
2022-10-21T03:16:19.791Z,100432.25
2022-10-21T03:17:00.069Z,100426.03
2022-10-21T03:17:34.197Z,100420.66
2022-10-21T03:18:07.787Z,100419.66
2022-10-21T03:18:49.094Z,100411.41
2022-10-21T03:19:23.145Z,100415.69
2022-10-21T03:19:56.776Z,100412.13
2022-10-21T03:20:37.101Z,100412.03
2022-10-21T03:21:11.141Z,100405.34
2022-10-21T03:21:44.865Z,100418.91
2022-10-21T03:22:25.047Z,100412.00
2022-10-21T03:23:05.117Z,100420.41
2022-10-21T03:23:45.083Z,100419.34
2022-10-21T03:24:28.819Z,100417.50
2022-10-21T03:25:03.180Z,100412.13
2022-10-21T03:25:36.833Z,100421.06
2022-10-21T03:26:17.062Z,100405.16
2022-10-21T03:26:51.119Z,100409.56
2022-10-21T03:27:24.785Z,100401.94
2022-10-21T03:28:05.048Z,100402.97
2022-10-21T03:28:39.539Z,100407.59
2022-10-21T03:29:13.801Z,100401.50
2022-10-21T03:29:54.072Z,100396.97
2022-10-21T03:30:28.183Z,100399.56
2022-10-21T03:31:01.803Z,100407.94
2022-10-21T03:31:42.046Z,100398.47
2022-10-21T03:32:16.217Z,100410.44
2022-10-21T03:32:49.782Z,100412.91
2022-10-21T03:33:31.088Z,100403.88
2022-10-21T03:34:05.130Z,100401.94
2022-10-21T03:34:38.761Z,100401.63
2022-10-21T03:35:19.102Z,100417.91
2022-10-21T03:35:53.158Z,100424.75
2022-10-21T03:36:26.912Z,100417.47
2022-10-21T03:37:07.072Z,100405.78
2022-10-21T03:37:41.130Z,100404.81
2022-10-21T03:38:15.789Z,100408.22
2022-10-21T03:38:56.063Z,100402.84
2022-10-21T03:39:30.099Z,100392.97
2022-10-21T03:40:08.568Z,100404.81
2022-10-21T03:40:51.090Z,100387.78
2022-10-21T03:41:25.130Z,100407.16
2022-10-21T03:41:58.778Z,100394.25
2022-10-21T03:42:40.458Z,100398.78
2022-10-21T03:43:15.237Z,100390.81
2022-10-21T03:43:48.869Z,100401.13
2022-10-21T03:44:29.060Z,100400.41
2022-10-21T03:45:03.107Z,100401.13
2022-10-21T03:45:36.831Z,100395.03
2022-10-21T03:46:17.073Z,100395.78
2022-10-21T03:46:51.113Z,100397.94
2022-10-21T03:47:24.819Z,100392.03
2022-10-21T03:48:06.063Z,100386.41
2022-10-21T03:48:40.119Z,100393.19
2022-10-21T03:49:20.127Z,100386.53
2022-10-21T03:50:01.088Z,100379.53
2022-10-21T03:50:35.101Z,100385.88
2022-10-21T03:51:08.792Z,100386.84
2022-10-21T03:51:49.066Z,100372.56
2022-10-21T03:52:23.096Z,100376.53
2022-10-21T03:52:56.699Z,100380.00
2022-10-21T03:53:44.266Z,100379.88
2022-10-21T03:54:18.083Z,100378.06
2022-10-21T03:54:51.722Z,100378.06
2022-10-21T03:55:33.010Z,100374.94
2022-10-21T03:56:07.101Z,100376.53
2022-10-21T03:56:40.741Z,100386.97
2022-10-21T03:57:21.053Z,100385.06
2022-10-21T03:57:55.121Z,100371.28
2022-10-21T03:58:28.809Z,100384.84
2022-10-21T03:59:09.036Z,100383.13
2022-10-21T03:59:43.081Z,100376.03
2022-10-21T04:00:17.085Z,100396.13
2022-10-21T04:01:01.351Z,100356.25
2022-10-21T04:01:35.190Z,100372.38
2022-10-21T04:02:08.771Z,100373.44
2022-10-21T04:02:50.048Z,100377.13
2022-10-21T04:03:24.279Z,100386.78
2022-10-21T04:03:57.725Z,100370.00
2022-10-21T04:04:38.037Z,100380.44
2022-10-21T04:05:13.120Z,100378.81
2022-10-21T04:05:53.248Z,100373.34
2022-10-21T04:06:33.016Z,100387.19
2022-10-21T04:07:13.065Z,100373.78
2022-10-21T04:07:54.033Z,100377.13
2022-10-21T04:08:34.081Z,100383.22
2022-10-21T04:09:14.091Z,100374.31
2022-10-21T04:09:54.070Z,100361.94
2022-10-21T04:10:34.040Z,100348.00
2022-10-21T04:11:14.073Z,100365.94
2022-10-21T04:11:54.013Z,100376.31
2022-10-21T04:12:34.092Z,100368.91
2022-10-21T04:13:15.071Z,100382.34
2022-10-21T04:13:56.083Z,100376.31
2022-10-21T04:14:36.006Z,100370.63
2022-10-21T04:15:18.105Z,100362.81
2022-10-21T04:16:03.059Z,100374.09
2022-10-21T04:16:43.113Z,100356.78
2022-10-21T04:17:23.014Z,100382.69
2022-10-21T04:18:03.102Z,100375.56
2022-10-21T04:18:43.073Z,100378.78
2022-10-21T04:19:37.017Z,100365.78
2022-10-21T04:20:31.009Z,100373.66
2022-10-21T04:21:25.005Z,100368.91
2022-10-21T04:22:20.025Z,100366.13
2022-10-21T04:23:14.016Z,100368.38
2022-10-21T04:24:01.047Z,100361.38
2022-10-21T04:24:35.060Z,100366.75
2022-10-21T04:25:22.004Z,100373.41
2022-10-21T04:25:56.070Z,100363.88
2022-10-21T04:26:42.986Z,100358.91
2022-10-21T04:27:17.063Z,100369.75
2022-10-21T04:28:04.005Z,100370.00
2022-10-21T04:28:38.050Z,100361.38
2022-10-21T04:29:25.115Z,100354.06
2022-10-21T04:29:59.166Z,100366.75
2022-10-21T04:30:46.003Z,100368.44
2022-10-21T04:31:20.088Z,100371.06
2022-10-21T04:32:07.030Z,100363.72
2022-10-21T04:32:42.860Z,100365.44
2022-10-21T04:33:30.004Z,100366.28
2022-10-21T04:34:04.112Z,100366.09
2022-10-21T04:34:52.021Z,100367.81
2022-10-21T04:35:26.096Z,100364.78
2022-10-21T04:36:13.995Z,100333.63
2022-10-21T04:36:48.069Z,100356.19
2022-10-21T04:37:34.997Z,100356.19
2022-10-21T04:38:15.068Z,100358.75
2022-10-21T04:39:02.024Z,100353.38
2022-10-21T04:39:36.061Z,100352.84
2022-10-21T04:40:17.010Z,100358.13
2022-10-21T04:41:04.205Z,100357.16
2022-10-21T04:41:44.017Z,100345.63
2022-10-21T04:42:24.103Z,100349.72
2022-10-21T04:43:03.998Z,100345.44
2022-10-21T04:43:57.999Z,100349.19
2022-10-21T04:44:53.021Z,100347.59
2022-10-21T04:45:45.014Z,100344.16
2022-10-21T04:46:20.894Z,100349.94
2022-10-21T04:47:07.985Z,100334.88
2022-10-21T04:47:42.103Z,100335.97
2022-10-21T04:48:28.997Z,100329.50
2022-10-21T04:49:03.080Z,100334.69
2022-10-21T04:49:49.988Z,100336.63
2022-10-21T04:50:24.049Z,100324.38
2022-10-21T04:51:04.006Z,100324.66
2022-10-21T04:51:44.042Z,100321.00
2022-10-21T04:52:24.018Z,100319.81
2022-10-21T04:53:04.040Z,100304.56
2022-10-21T04:53:43.994Z,100320.06
2022-10-21T04:54:24.033Z,100330.72
2022-10-21T04:55:04.975Z,100324.56
2022-10-21T04:55:48.089Z,100314.06
2022-10-21T04:56:28.997Z,100319.00
2022-10-21T04:57:09.144Z,100306.28
2022-10-21T04:57:49.003Z,100306.53
2022-10-21T04:58:29.045Z,100309.81
2022-10-21T04:59:08.970Z,100306.69
2022-10-21T04:59:49.085Z,100304.13
2022-10-21T05:00:28.972Z,100298.09
2022-10-21T05:01:09.092Z,100293.38
2022-10-21T05:01:50.042Z,100308.00
2022-10-21T05:02:30.037Z,100306.06
2022-10-21T05:03:09.998Z,100283.06
2022-10-21T05:03:50.032Z,100303.59
2022-10-21T05:04:29.950Z,100296.44
2022-10-21T05:05:10.082Z,100301.16
2022-10-21T05:05:49.992Z,100276.63
2022-10-21T05:06:30.020Z,100298.09
2022-10-21T05:07:10.006Z,100312.31
2022-10-21T05:07:50.029Z,100305.03
2022-10-21T05:08:30.045Z,100301.34
2022-10-21T05:09:10.286Z,100304.13
2022-10-21T05:09:49.954Z,100309.50
2022-10-21T05:10:32.951Z,100301.97
2022-10-21T05:11:13.964Z,100301.50
2022-10-21T05:11:54.060Z,100296.56
2022-10-21T05:13:19.029Z,100296.34
2022-10-21T05:13:59.937Z,100292.69
2022-10-21T05:14:40.025Z,100294.16
2022-10-21T05:15:20.965Z,100292.97
2022-10-21T05:16:06.079Z,100286.88
2022-10-21T05:16:45.970Z,100290.53
2022-10-21T05:17:26.006Z,100292.25
2022-10-21T05:18:06.013Z,100297.38
2022-10-21T05:18:46.073Z,100292.97
2022-10-21T05:19:30.362Z,100285.25
2022-10-21T05:20:12.029Z,100289.56
2022-10-21T05:20:57.967Z,100288.34
2022-10-21T05:21:38.040Z,100291.91
2022-10-21T05:22:18.963Z,100290.28
2022-10-21T05:22:59.102Z,100287.13
2022-10-21T05:23:39.965Z,100286.28
2022-10-21T05:24:22.154Z,100290.75
2022-10-21T05:25:01.973Z,100295.47
2022-10-21T05:25:41.985Z,100275.13
2022-10-21T05:26:21.971Z,100293.03
2022-10-21T05:27:02.007Z,100288.63
2022-10-21T05:27:41.964Z,100285.47
2022-10-21T05:28:21.993Z,100288.69
2022-10-21T05:29:01.997Z,100273.47
2022-10-21T05:29:42.057Z,100281.81
2022-10-21T05:30:22.942Z,100278.28
2022-10-21T05:31:03.062Z,100269.06
2022-10-21T05:31:43.932Z,100276.03
2022-10-21T05:32:24.192Z,100268.44
2022-10-21T05:33:03.938Z,100260.75
2022-10-21T05:33:43.978Z,100268.34
2022-10-21T05:34:24.026Z,100266.19
2022-10-21T05:35:04.024Z,100271.44
2022-10-21T05:35:44.978Z,100274.78
2022-10-21T05:36:25.025Z,100270.13
2022-10-21T05:37:05.998Z,100267.16
2022-10-21T05:37:59.952Z,100265.44
2022-10-21T05:38:53.911Z,100260.28
2022-10-21T05:40:20.050Z,100269.13
2022-10-21T05:41:07.969Z,100260.97
2022-10-21T05:41:44.203Z,100257.19
2022-10-21T05:42:35.084Z,100253.50
2022-10-21T05:43:09.033Z,100251.78
2022-10-21T05:43:55.937Z,100255.00
2022-10-21T05:44:30.108Z,100224.72
2022-10-21T05:45:10.972Z,100252.31
2022-10-21T05:45:51.000Z,100246.69
2022-10-21T05:46:30.908Z,100240.03
2022-10-21T05:47:11.021Z,100250.84
2022-10-21T05:47:51.002Z,100249.13
2022-10-21T05:48:32.028Z,100238.63
2022-10-21T05:49:12.925Z,100250.84
2022-10-21T05:49:53.082Z,100248.50
2022-10-21T05:50:33.958Z,100236.16
2022-10-21T05:51:13.967Z,100242.03
2022-10-21T05:51:54.890Z,100236.41
2022-10-21T05:52:35.052Z,100244.13
2022-10-21T05:53:15.947Z,100250.75
2022-10-21T05:53:56.074Z,100250.66
2022-10-21T05:54:35.939Z,100244.16
2022-10-21T05:55:17.053Z,100239.63
2022-10-21T05:56:12.980Z,100242.69
2022-10-21T05:56:52.989Z,100238.19
2022-10-21T05:57:32.944Z,100236.47
2022-10-21T05:58:14.018Z,100230.09
2022-10-21T05:58:54.956Z,100236.94
2022-10-21T05:59:35.016Z,100242.59
2022-10-21T06:00:16.899Z,100233.75
2022-10-21T06:00:59.138Z,100226.28
2022-10-21T06:01:38.942Z,100231.34
2022-10-21T06:02:52.028Z,100229.38
2022-10-21T06:03:37.928Z,100220.56
2022-10-21T06:04:17.977Z,100233.78
2022-10-21T06:04:57.898Z,100227.66
2022-10-21T06:05:38.186Z,100226.81
2022-10-21T06:06:18.933Z,100224.25
2022-10-21T06:06:58.962Z,100222.41
2022-10-21T06:07:32.981Z,100231.94
2022-10-21T06:08:19.898Z,100220.56
2022-10-21T06:08:54.019Z,100216.75
2022-10-21T06:09:41.902Z,100224.97
2022-10-21T06:10:16.672Z,100222.03
2022-10-21T06:11:15.934Z,100220.06
2022-10-21T06:11:49.971Z,100218.72
2022-10-21T06:12:30.111Z,100216.88
2022-10-21T06:13:10.046Z,100220.78
2022-10-21T06:13:50.899Z,100217.75
2022-10-21T06:14:33.001Z,100197.78
2022-10-21T06:15:13.896Z,100211.88
2022-10-21T06:15:53.995Z,100219.63
2022-10-21T06:16:34.882Z,100203.91
2022-10-21T06:17:14.995Z,100214.75
2022-10-21T06:17:54.930Z,100215.47
2022-10-21T06:18:35.009Z,100207.88
2022-10-21T06:19:15.878Z,100214.97
2022-10-21T06:19:55.986Z,100207.88
2022-10-21T06:20:35.961Z,100220.13
2022-10-21T06:21:17.008Z,100214.00
2022-10-21T06:21:56.897Z,100210.44
2022-10-21T06:22:36.988Z,100214.47
2022-10-21T06:23:18.895Z,100211.44
2022-10-21T06:24:01.965Z,100215.25
2022-10-21T06:24:41.882Z,100204.47
2022-10-21T06:25:22.113Z,100213.28
2022-10-21T06:26:22.912Z,100210.72
2022-10-21T06:27:03.065Z,100201.78
2022-10-21T06:27:42.957Z,100202.50
2022-10-21T06:28:29.912Z,100206.91
2022-10-21T06:29:23.981Z,100205.81
2022-10-21T06:30:18.900Z,100194.19
2022-10-21T06:31:12.898Z,100204.81
2022-10-21T06:32:06.853Z,100205.69
2022-10-21T06:33:00.941Z,100206.41
2022-10-21T06:33:47.921Z,100207.16
2022-10-21T06:34:22.398Z,100207.38
2022-10-21T06:35:10.866Z,100212.53
2022-10-21T06:35:45.028Z,100206.03
2022-10-21T06:36:31.994Z,100201.00
2022-10-21T06:37:05.937Z,100202.00
2022-10-21T06:37:52.915Z,100201.00
2022-10-21T06:38:27.017Z,100201.00
2022-10-21T06:39:08.001Z,100203.97
2022-10-21T06:39:47.979Z,100203.13
2022-10-21T06:40:27.932Z,100203.13
2022-10-21T06:41:16.033Z,100208.09
2022-10-21T06:41:55.923Z,100203.13
2022-10-21T06:42:35.937Z,100209.84
2022-10-21T06:43:15.912Z,100201.88
2022-10-21T06:43:56.944Z,100204.19
2022-10-21T06:44:36.907Z,100202.34
2022-10-21T06:45:17.931Z,100194.63
2022-10-21T06:45:57.877Z,100204.47
2022-10-21T06:46:37.993Z,100209.34
2022-10-21T06:47:17.865Z,100197.59
2022-10-21T06:48:40.366Z,100183.63
2022-10-21T06:49:20.850Z,100190.47
2022-10-21T06:50:00.896Z,100195.59
2022-10-21T06:50:34.908Z,100200.00
2022-10-21T06:51:28.848Z,100195.75
2022-10-21T06:52:02.943Z,100200.00
2022-10-21T06:52:50.904Z,100197.31
2022-10-21T06:53:24.954Z,100173.34
2022-10-21T06:54:11.879Z,100180.56
2022-10-21T06:54:45.948Z,100196.81
2022-10-21T06:55:25.958Z,100196.81
2022-10-21T06:56:16.641Z,100200.75
2022-10-21T06:56:56.865Z,100198.41
2022-10-21T06:57:37.382Z,100193.03
2022-10-21T06:58:17.847Z,100205.66
2022-10-21T06:58:58.048Z,100193.41
2022-10-21T06:59:37.859Z,100182.16
2022-10-21T07:00:19.998Z,100200.00
2022-10-21T07:00:59.889Z,100193.75
2022-10-21T07:01:59.061Z,100200.59
2022-10-21T07:02:40.184Z,100187.25
2022-10-21T07:03:20.945Z,100181.88
2022-10-21T07:04:01.845Z,100179.19
2022-10-21T07:04:45.028Z,100182.59
2022-10-21T07:05:24.866Z,100174.50
2022-10-21T07:06:12.924Z,100181.88
2022-10-21T07:07:06.853Z,100186.66
2022-10-21T07:08:00.868Z,100185.53
2022-10-21T07:08:59.323Z,100179.28
2022-10-21T07:09:53.845Z,100179.41
2022-10-21T07:10:51.887Z,100175.88
2022-10-21T07:11:33.913Z,100177.44
2022-10-21T07:12:14.091Z,100185.28
2022-10-21T07:12:53.848Z,100175.97
2022-10-21T07:13:33.915Z,100185.25
2022-10-21T07:14:13.856Z,100174.25
2022-10-21T07:14:54.398Z,100184.41
2022-10-21T07:15:34.893Z,100181.09
2022-10-21T07:16:25.956Z,100181.84
2022-10-21T07:17:06.867Z,100177.41
2022-10-21T07:17:46.915Z,100178.78
2022-10-21T07:18:26.855Z,100171.09
2022-10-21T07:19:06.957Z,100178.66
2022-10-21T07:19:47.833Z,100175.69
2022-10-21T07:20:27.932Z,100174.97
2022-10-21T07:21:13.846Z,100148.56
2022-10-21T07:21:54.044Z,100165.19
2022-10-21T07:22:33.881Z,100165.19
2022-10-21T07:23:13.936Z,100159.66
2022-10-21T07:23:59.352Z,100165.78
2022-10-21T07:24:39.946Z,100164.41
2022-10-21T07:25:20.148Z,100150.72
2022-10-21T07:26:00.949Z,100155.59
2022-10-21T07:26:41.946Z,100163.19
2022-10-21T07:27:21.987Z,100158.78
2022-10-21T07:28:02.879Z,100155.59
2022-10-21T07:28:46.999Z,100152.66
2022-10-21T07:29:27.888Z,100165.63
2022-10-21T07:30:07.918Z,100163.66
2022-10-21T07:30:52.137Z,100148.31
2022-10-21T07:31:32.904Z,100150.63
2022-10-21T07:32:12.895Z,100152.09
2022-10-21T07:32:52.881Z,100160.63
2022-10-21T07:33:33.884Z,100152.56
2022-10-21T07:34:16.155Z,100152.69
2022-10-21T07:34:56.845Z,100151.13
2022-10-21T07:35:36.934Z,100164.13
2022-10-21T07:36:30.856Z,100153.06
2022-10-21T07:37:10.926Z,100148.28
2022-10-21T07:37:50.870Z,100150.84
2022-10-21T07:38:30.919Z,100141.03
2022-10-21T07:39:16.955Z,100129.63
2022-10-21T07:39:57.962Z,100158.31
2022-10-21T07:40:38.850Z,100156.19
2022-10-21T07:41:31.903Z,100153.28
2022-10-21T07:42:11.808Z,100153.50
2022-10-21T07:42:51.907Z,100153.97
2022-10-21T07:43:32.809Z,100152.59
2022-10-21T07:44:13.954Z,100140.59
2022-10-21T07:44:56.918Z,100147.31
2022-10-21T07:45:36.949Z,100132.75
2022-10-21T07:46:17.832Z,100147.50
2022-10-21T07:46:58.914Z,100156.94
2022-10-21T07:47:39.049Z,100145.28
2022-10-21T07:48:20.077Z,100152.13
2022-10-21T07:49:00.791Z,100146.75
2022-10-21T07:49:40.889Z,100159.00
2022-10-21T07:50:21.878Z,100158.25
2022-10-21T07:51:01.935Z,100142.44
2022-10-21T07:51:42.849Z,100150.00
2022-10-21T07:52:22.934Z,100157.34
2022-10-21T07:53:12.003Z,100155.63
2022-10-21T07:53:55.954Z,100144.97
2022-10-21T07:54:36.797Z,100149.59
2022-10-21T07:55:18.990Z,100151.28
2022-10-21T07:56:29.977Z,100138.78
2022-10-21T07:57:09.909Z,100139.53
2022-10-21T07:57:50.870Z,100132.28
2022-10-21T07:58:30.958Z,100136.53
2022-10-21T07:59:13.227Z,100140.91
2022-10-21T07:59:54.964Z,100137.78
2022-10-21T08:00:34.918Z,100134.69
2022-10-21T08:01:55.859Z,100131.69
2022-10-21T08:02:50.857Z,100131.94
2022-10-21T08:03:46.994Z,100125.78
2022-10-21T08:04:40.926Z,100118.06
2022-10-21T08:05:35.888Z,100118.31
2022-10-21T08:06:30.816Z,100124.28
2022-10-21T08:07:17.898Z,100125.50
2022-10-21T08:07:51.889Z,100118.94
2022-10-21T08:08:40.866Z,100114.84
2022-10-21T08:09:17.306Z,100108.59
2022-10-21T08:10:05.860Z,100106.59
2022-10-21T08:10:40.596Z,100108.28
2022-10-21T08:11:36.896Z,100113.94
2022-10-21T08:12:14.392Z,100113.09
2022-10-21T08:12:56.838Z,100102.28
2022-10-21T08:13:36.880Z,100119.34
2022-10-21T08:14:17.917Z,100117.31
2022-10-21T08:14:59.023Z,100128.19
2022-10-21T08:15:38.936Z,100117.63
2022-10-21T08:16:18.947Z,100119.25
2022-10-21T08:17:00.865Z,100133.59
2022-10-21T08:17:41.042Z,100135.47
2022-10-21T08:18:21.892Z,100140.47